Time;durP1;ratioP1;P1;durP2;ratioP2;P2;SDS_P1;SDS_P2;PMS_P1;PMS_P2;Temp;Humidity;BMP_temperature;BMP_pressure;BME280_temperature;BME280_humidity;BME280_pressure;Samples;Min_cycle;Max_cycle;Signal;HPM_P1;HPM_P2
2023/01/10 00:00:33;;;;;;;90.22;84.55;;;6.80;99.90;;;;;;5100199;28;20429;-72
2023/01/10 00:03:00;;;;;;;93.45;87.35;;;6.90;99.90;;;;;;5099819;28;20036;-71
2023/01/10 00:05:26;;;;;;;92.70;86.28;;;6.90;99.90;;;;;;5100391;28;20043;-71
2023/01/10 00:07:51;;;;;;;98.47;92.28;;;6.80;99.90;;;;;;5100296;28;20417;-72
2023/01/10 00:10:17;;;;;;;103.28;96.50;;;6.60;99.90;;;;;;5100236;28;20076;-71
2023/01/10 00:15:27;;;;;;;101.35;94.18;;;6.30;99.90;;;;;;5099858;28;20140;-71
2023/01/10 00:17:52;;;;;;;98.65;91.55;;;6.30;99.90;;;;;;5100132;28;20071;-71
2023/01/10 00:20:18;;;;;;;97.85;91.30;;;6.30;99.90;;;;;;5100047;28;20040;-71
2023/01/10 00:22:46;;;;;;;99.35;92.72;;;6.30;99.90;;;;;;5099047;28;20036;-71
2023/01/10 00:25:12;;;;;;;96.93;90.35;;;6.30;99.90;;;;;;5100037;28;20058;-71
2023/01/10 00:27:38;;;;;;;98.60;91.10;;;6.30;99.90;;;;;;5099962;28;20417;-72
2023/01/10 00:30:12;;;;;;;97.63;90.75;;;6.30;99.90;;;;;;5099952;28;20036;-71
2023/01/10 00:32:43;;;;;;;98.13;91.55;;;6.30;99.90;;;;;;5099587;28;20028;-71
2023/01/10 00:35:10;;;;;;;98.45;91.28;;;6.40;99.90;;;;;;5099781;28;20067;-71
2023/01/10 00:37:36;;;;;;;101.45;94.05;;;6.40;99.90;;;;;;5099704;28;20046;-72
2023/01/10 00:40:03;;;;;;;99.07;91.53;;;6.50;99.90;;;;;;5099647;28;20047;-72
2023/01/10 00:45:12;;;;;;;102.25;95.35;;;6.60;99.90;;;;;;5099576;28;20044;-71
2023/01/10 00:47:38;;;;;;;100.40;93.10;;;6.60;99.90;;;;;;5099256;28;20040;-70
2023/01/10 00:50:05;;;;;;;100.55;93.75;;;6.60;99.90;;;;;;5099527;28;20489;-71
2023/01/10 00:52:30;;;;;;;99.63;91.78;;;6.70;99.90;;;;;;5099257;28;20432;-71
2023/01/10 00:54:56;;;;;;;97.95;90.97;;;6.50;99.90;;;;;;5099123;28;20039;-72
2023/01/10 00:57:22;;;;;;;98.05;91.10;;;6.60;99.90;;;;;;5098807;28;20074;-71
2023/01/10 00:59:47;;;;;;;101.32;93.93;;;6.60;99.90;;;;;;5099181;28;20048;-71
2023/01/10 01:02:13;;;;;;;97.95;90.50;;;6.60;99.90;;;;;;5099039;28;20040;-72
2023/01/10 01:04:39;;;;;;;101.60;93.75;;;6.70;99.90;;;;;;5099188;28;20317;-71
2023/01/10 01:07:04;;;;;;;94.18;87.40;;;6.70;99.90;;;;;;5099180;28;20047;-71
2023/01/10 01:09:30;;;;;;;90.75;84.50;;;6.80;99.90;;;;;;5099157;28;20043;-71
2023/01/10 01:11:56;;;;;;;96.70;90.20;;;6.80;99.90;;;;;;5098813;28;20036;-71
2023/01/10 01:14:23;;;;;;;93.75;86.97;;;6.80;99.90;;;;;;5099107;28;20066;-72
2023/01/10 01:16:48;;;;;;;96.97;89.00;;;6.80;99.90;;;;;;5099044;28;20051;-72
2023/01/10 01:19:14;;;;;;;94.43;87.78;;;6.80;99.90;;;;;;5098647;28;20044;-71
2023/01/10 01:21:40;;;;;;;95.07;88.13;;;6.80;99.90;;;;;;5098947;28;20070;-72
2023/01/10 01:24:08;;;;;;;97.80;90.07;;;6.90;99.90;;;;;;5098904;28;20079;-71
2023/01/10 01:26:34;;;;;;;93.65;87.07;;;6.80;99.90;;;;;;5098585;28;20036;-72
2023/01/10 01:28:59;;;;;;;95.60;89.20;;;7.00;99.90;;;;;;5098769;28;20051;-72
2023/01/10 01:31:25;;;;;;;98.80;91.32;;;7.00;99.90;;;;;;5098401;28;20043;-71
2023/01/10 01:33:51;;;;;;;93.25;86.45;;;7.00;99.90;;;;;;5098666;28;20063;-71
2023/01/10 01:36:16;;;;;;;97.85;90.30;;;6.90;99.90;;;;;;5098635;28;20074;-71
2023/01/10 01:38:42;;;;;;;96.20;89.10;;;6.90;99.90;;;;;;5098337;28;20104;-72
2023/01/10 01:41:55;;;;;;;95.70;89.15;;;6.90;99.90;;;;;;5098199;28;20040;-71
2023/01/10 01:44:01;;;;;;;97.63;89.70;;;6.90;99.90;;;;;;5098150;28;20044;-72
2023/01/10 01:46:28;;;;;;;98.60;90.85;;;6.90;99.90;;;;;;5098173;28;20042;-71
2023/01/10 01:48:54;;;;;;;96.28;89.15;;;6.80;99.90;;;;;;5097888;28;20067;-72
2023/01/10 01:51:25;;;;;;;96.50;89.57;;;6.90;99.90;;;;;;5098302;28;20036;-71
2023/01/10 01:54:02;;;;;;;95.00;88.25;;;6.90;99.90;;;;;;5098390;28;20105;-71
2023/01/10 01:56:37;;;;;;;97.03;88.70;;;6.80;99.90;;;;;;5098019;28;20032;-71
2023/01/10 01:59:18;;;;;;;95.27;88.60;;;6.80;99.90;;;;;;5098317;28;20115;-72
2023/01/10 02:01:47;;;;;;;95.70;88.85;;;6.90;99.90;;;;;;5097543;28;20417;-72
2023/01/10 02:04:19;;;;;;;93.53;86.60;;;7.00;99.90;;;;;;5098143;28;20032;-76
2023/01/10 02:06:48;;;;;;;94.78;87.45;;;6.90;99.90;;;;;;5098094;28;20036;-71
2023/01/10 02:09:24;;;;;;;96.70;89.75;;;6.80;99.90;;;;;;5097135;28;20062;-72
2023/01/10 02:11:50;;;;;;;96.93;89.38;;;6.80;99.90;;;;;;5098000;28;20136;-72
2023/01/10 02:14:16;;;;;;;97.10;90.43;;;6.90;99.90;;;;;;5096557;28;20032;-72
2023/01/10 02:16:42;;;;;;;96.32;89.55;;;6.90;99.90;;;;;;5097541;28;20374;-71
2023/01/10 02:19:35;;;;;;;97.03;90.35;;;7.10;99.90;;;;;;5097785;28;20119;-72
2023/01/10 02:22:16;;;;;;;102.88;94.72;;;7.10;99.90;;;;;;5097735;28;20101;-71
2023/01/10 02:25:18;;;;;;;98.88;92.35;;;7.00;99.90;;;;;;5097720;28;20043;-71
2023/01/10 02:28:17;;;;;;;101.47;93.95;;;6.90;99.90;;;;;;5097393;28;20444;-71
2023/01/10 02:31:07;;;;;;;104.38;96.07;;;7.00;99.90;;;;;;5097292;28;20047;-71
2023/01/10 02:34:10;;;;;;;104.40;97.57;;;7.00;99.90;;;;;;5097230;28;20097;-71
2023/01/10 02:37:10;;;;;;;105.57;97.95;;;7.00;99.90;;;;;;5097410;28;20097;-72
2023/01/10 02:39:54;;;;;;;102.72;95.78;;;7.10;99.90;;;;;;5061866;28;20052;-72
2023/01/10 02:42:29;;;;;;;104.95;96.70;;;7.00;99.90;;;;;;5097392;28;20046;-72
2023/01/10 02:45:11;;;;;;;105.55;97.25;;;7.00;99.90;;;;;;5097388;28;20119;-71
2023/01/10 02:47:38;;;;;;;102.22;94.32;;;7.00;99.90;;;;;;5097040;28;20097;-72
2023/01/10 02:50:46;;;;;;;98.80;92.30;;;6.90;99.90;;;;;;5097343;28;20066;-71
2023/01/10 02:53:22;;;;;;;98.78;92.40;;;7.10;99.90;;;;;;5076923;28;20489;-72
2023/01/10 02:55:59;;;;;;;101.03;93.07;;;7.10;99.90;;;;;;5097316;28;20333;-72
2023/01/10 02:58:40;;;;;;;99.57;92.22;;;7.20;99.90;;;;;;5097143;28;20040;-71
2023/01/10 03:01:17;;;;;;;97.60;90.03;;;7.10;99.90;;;;;;5097020;28;20048;-71
2023/01/10 03:03:50;;;;;;;97.03;90.97;;;7.10;99.90;;;;;;5097098;28;20036;-72
2023/01/10 03:06:25;;;;;;;98.47;91.43;;;7.10;99.90;;;;;;5097073;28;20044;-71
2023/01/10 03:09:13;;;;;;;99.32;92.78;;;7.10;99.90;;;;;;5097031;28;20032;-72
2023/01/10 03:11:43;;;;;;;104.10;97.00;;;7.00;99.90;;;;;;5096968;28;20044;-71
2023/01/10 03:14:20;;;;;;;101.38;93.97;;;6.90;99.90;;;;;;5096885;28;20063;-72
2023/01/10 03:16:54;;;;;;;101.93;94.25;;;6.80;99.90;;;;;;5095824;28;20429;-72
2023/01/10 03:19:23;;;;;;;99.60;92.95;;;6.90;99.90;;;;;;5096855;28;20043;-72
2023/01/10 03:21:55;;;;;;;99.25;92.40;;;6.80;99.90;;;;;;5096630;28;20050;-72
2023/01/10 03:24:41;;;;;;;100.45;93.00;;;6.80;99.90;;;;;;5096703;28;20123;-72
2023/01/10 03:27:18;;;;;;;102.63;95.45;;;6.90;99.90;;;;;;5096713;28;20071;-71
2023/01/10 03:30:07;;;;;;;103.40;96.63;;;6.80;99.90;;;;;;5096455;28;20502;-72
2023/01/10 03:32:33;;;;;;;102.28;95.13;;;6.70;99.90;;;;;;5096353;28;20043;-71
2023/01/10 03:35:01;;;;;;;104.00;95.93;;;6.70;99.90;;;;;;5096561;28;20310;-71
2023/01/10 03:37:41;;;;;;;103.47;94.90;;;6.70;99.90;;;;;;5084443;28;20449;-73
2023/01/10 03:40:35;;;;;;;105.80;97.90;;;6.80;99.90;;;;;;5074693;28;20395;-72
2023/01/10 03:46:09;;;;;;;104.85;97.07;;;6.90;99.90;;;;;;5076811;28;20047;-71
2023/01/10 03:48:37;;;;;;;105.65;97.88;;;6.90;99.90;;;;;;5075832;28;20481;-71
2023/01/10 03:51:05;;;;;;;107.72;100.10;;;6.90;99.90;;;;;;5075917;28;20442;-71
2023/01/10 03:53:33;;;;;;;106.45;97.97;;;6.90;99.90;;;;;;5076283;28;20040;-71
2023/01/10 03:55:59;;;;;;;104.40;97.25;;;6.90;99.90;;;;;;5076320;28;20337;-72
2023/01/10 03:58:27;;;;;;;104.47;96.68;;;6.90;99.90;;;;;;5058193;28;20055;-71
2023/01/10 04:00:52;;;;;;;105.65;97.75;;;7.00;99.90;;;;;;5076148;28;20414;-71
2023/01/10 04:03:18;;;;;;;107.72;99.78;;;7.10;99.90;;;;;;5075688;28;20116;-71
2023/01/10 04:05:44;;;;;;;108.45;100.30;;;7.00;99.90;;;;;;5075805;28;20125;-71
2023/01/10 04:08:10;;;;;;;108.47;98.88;;;7.00;99.90;;;;;;5075896;28;20044;-71
2023/01/10 04:10:36;;;;;;;105.30;97.50;;;7.10;99.90;;;;;;5076171;28;20044;-71
2023/01/10 04:13:03;;;;;;;107.80;100.72;;;7.20;99.90;;;;;;5076045;28;20124;-72
2023/01/10 04:15:29;;;;;;;102.63;94.15;;;7.10;99.90;;;;;;5075120;28;20048;-71
2023/01/10 04:17:55;;;;;;;100.72;93.53;;;7.20;99.90;;;;;;5075766;28;20045;-72
2023/01/10 04:20:21;;;;;;;108.07;100.00;;;7.20;99.90;;;;;;5075925;28;20098;-71
2023/01/10 04:22:48;;;;;;;107.38;100.03;;;7.30;99.90;;;;;;5075716;28;20422;-71
2023/01/10 04:25:15;;;;;;;109.45;101.18;;;7.20;99.90;;;;;;5075904;28;20052;-72
2023/01/10 04:27:40;;;;;;;107.55;99.10;;;7.30;99.90;;;;;;5074649;28;20422;-71
2023/01/10 04:30:07;;;;;;;109.05;101.40;;;7.40;99.90;;;;;;5074914;28;20044;-72
2023/01/10 04:32:33;;;;;;;109.88;101.75;;;7.50;99.90;;;;;;5075711;28;20119;-72
2023/01/10 04:34:59;;;;;;;107.20;100.63;;;7.40;99.90;;;;;;5079486;28;20154;-72
2023/01/10 04:37:24;;;;;;;105.40;98.65;;;7.40;99.90;;;;;;5079509;28;20070;-72
2023/01/10 04:39:50;;;;;;;105.00;97.70;;;7.30;99.90;;;;;;5079080;28;20043;-71
2023/01/10 04:42:16;;;;;;;108.18;100.07;;;7.40;99.90;;;;;;5079365;28;20044;-72
2023/01/10 04:44:42;;;;;;;106.60;99.30;;;7.40;99.90;;;;;;5079023;28;20414;-72
2023/01/10 04:47:08;;;;;;;97.50;90.03;;;7.40;99.90;;;;;;5079360;28;20086;-71
2023/01/10 04:49:33;;;;;;;101.05;93.70;;;7.50;99.90;;;;;;5077800;28;20429;-72
2023/01/10 04:51:59;;;;;;;108.82;100.90;;;7.40;99.90;;;;;;5079194;28;20335;-72
2023/01/10 04:54:25;;;;;;;109.10;100.32;;;7.30;99.90;;;;;;5078141;28;20311;-71
2023/01/10 04:56:50;;;;;;;109.97;101.53;;;7.30;99.90;;;;;;5079095;28;20039;-72
2023/01/10 04:59:16;;;;;;;108.07;100.38;;;7.20;99.90;;;;;;5078912;28;20064;-71
2023/01/10 05:01:42;;;;;;;110.63;102.00;;;7.10;99.90;;;;;;5078720;28;20064;-72
2023/01/10 05:04:08;;;;;;;103.82;96.68;;;7.10;99.90;;;;;;5079012;28;20040;-71
2023/01/10 05:06:34;;;;;;;100.40;91.80;;;7.10;99.90;;;;;;5078950;28;20036;-71
2023/01/10 05:09:00;;;;;;;103.78;96.68;;;7.00;99.90;;;;;;5078911;28;20303;-71
2023/01/10 05:11:26;;;;;;;98.40;90.45;;;7.10;99.90;;;;;;5078939;28;20101;-71
2023/01/10 05:13:51;;;;;;;105.05;96.15;;;7.00;99.90;;;;;;5078832;28;20086;-72
2023/01/10 05:16:17;;;;;;;96.72;89.57;;;7.00;99.90;;;;;;5078842;28;20436;-72
2023/01/10 05:18:43;;;;;;;98.85;92.63;;;7.00;99.90;;;;;;5078798;28;20123;-72
2023/01/10 05:21:11;;;;;;;103.43;96.22;;;7.00;99.90;;;;;;5078629;28;20407;-71
2023/01/10 05:23:38;;;;;;;101.80;94.03;;;7.00;99.90;;;;;;5078643;28;20044;-71
2023/01/10 05:26:09;;;;;;;100.85;94.15;;;6.90;99.90;;;;;;5078282;28;20437;-71
2023/01/10 05:28:35;;;;;;;99.20;92.95;;;6.90;99.90;;;;;;5078640;28;20044;-72
2023/01/10 05:31:01;;;;;;;99.03;92.32;;;6.80;99.90;;;;;;5078523;28;20047;-72
2023/01/10 05:33:27;;;;;;;96.78;89.35;;;6.80;99.90;;;;;;5077825;28;20048;-71
2023/01/10 05:35:52;;;;;;;99.88;92.93;;;6.80;99.90;;;;;;5078478;28;20079;-72
2023/01/10 05:38:18;;;;;;;93.90;87.07;;;6.90;99.90;;;;;;5077426;28;20121;-71
2023/01/10 05:40:44;;;;;;;99.35;92.03;;;7.00;99.90;;;;;;5078283;28;20037;-71
2023/01/10 05:43:10;;;;;;;100.03;92.43;;;7.10;99.90;;;;;;5078090;28;20043;-71
2023/01/10 05:45:36;;;;;;;100.80;92.72;;;7.20;99.90;;;;;;5078170;28;20040;-72
2023/01/10 05:48:02;;;;;;;100.78;93.05;;;7.30;99.90;;;;;;5077941;28;20057;-71
2023/01/10 05:50:28;;;;;;;91.65;84.47;;;7.30;99.90;;;;;;5078206;28;20106;-72
2023/01/10 05:52:54;;;;;;;89.93;81.88;;;7.30;99.90;;;;;;5078071;28;20330;-72
2023/01/10 05:55:19;;;;;;;94.60;86.95;;;7.40;99.90;;;;;;5078198;28;20094;-71
2023/01/10 05:57:45;;;;;;;91.10;84.22;;;7.40;99.90;;;;;;5078559;28;20374;-71
2023/01/10 06:00:11;;;;;;;91.35;84.10;;;7.40;99.90;;;;;;5077926;28;20405;-72
2023/01/10 06:02:37;;;;;;;90.60;84.68;;;7.40;99.90;;;;;;5077637;28;20032;-71
2023/01/10 06:05:03;;;;;;;96.75;88.20;;;7.40;99.90;;;;;;5077582;28;20041;-72
2023/01/10 06:07:29;;;;;;;93.95;87.57;;;7.60;99.90;;;;;;5077561;28;20037;-72
2023/01/10 06:09:54;;;;;;;96.93;88.93;;;7.50;99.90;;;;;;5077791;28;20373;-72
2023/01/10 06:12:20;;;;;;;99.47;91.15;;;7.50;99.90;;;;;;5077699;28;20040;-71
2023/01/10 06:14:46;;;;;;;96.55;86.65;;;7.50;99.90;;;;;;5077704;28;20410;-71
2023/01/10 06:17:11;;;;;;;96.03;87.40;;;7.50;99.90;;;;;;5088346;28;20043;-72
2023/01/10 06:19:37;;;;;;;94.43;85.80;;;7.60;99.90;;;;;;5097554;28;20470;-72
2023/01/10 06:22:03;;;;;;;91.43;83.93;;;7.60;99.90;;;;;;5097549;28;20047;-71
2023/01/10 06:24:29;;;;;;;86.63;79.20;;;7.70;99.90;;;;;;5097780;28;20067;-72
2023/01/10 06:26:54;;;;;;;93.80;85.53;;;7.60;99.90;;;;;;5097401;28;20139;-71
2023/01/10 06:29:20;;;;;;;91.30;84.65;;;7.60;99.90;;;;;;5097670;28;20105;-71
2023/01/10 06:31:46;;;;;;;91.60;84.47;;;7.70;99.90;;;;;;5097317;28;20537;-72
2023/01/10 06:34:11;;;;;;;88.75;82.28;;;7.50;99.90;;;;;;5097617;28;20059;-72
2023/01/10 06:36:37;;;;;;;86.95;80.68;;;7.50;99.90;;;;;;5097556;28;20036;-72
2023/01/10 06:39:03;;;;;;;89.78;83.55;;;7.60;99.90;;;;;;5079256;28;20036;-72
2023/01/10 06:41:29;;;;;;;86.90;79.93;;;7.70;99.90;;;;;;5097380;28;20040;-71
2023/01/10 06:43:54;;;;;;;89.68;81.90;;;7.70;99.90;;;;;;5097088;28;20035;-72
2023/01/10 06:46:20;;;;;;;89.82;83.38;;;7.60;99.90;;;;;;5097052;28;20043;-72
2023/01/10 06:48:46;;;;;;;87.75;82.07;;;7.60;99.90;;;;;;5096985;28;20052;-72
2023/01/10 06:51:14;;;;;;;90.95;84.32;;;7.60;99.90;;;;;;5097279;28;20051;-72
2023/01/10 06:53:40;;;;;;;90.53;83.50;;;7.60;99.90;;;;;;5097222;28;20047;-72
2023/01/10 06:56:08;;;;;;;94.13;86.93;;;7.50;99.90;;;;;;5096721;28;20040;-72
2023/01/10 06:58:34;;;;;;;95.05;88.65;;;7.40;99.90;;;;;;5097199;28;20039;-72
2023/01/10 07:01:00;;;;;;;95.70;89.38;;;7.40;99.90;;;;;;5097045;28;20173;-72
2023/01/10 07:03:25;;;;;;;95.07;89.13;;;7.50;99.90;;;;;;5095466;28;20119;-72
2023/01/10 07:05:51;;;;;;;93.93;86.95;;;7.40;99.90;;;;;;5097080;28;20132;-72
2023/01/10 07:08:17;;;;;;;89.20;82.57;;;7.40;99.90;;;;;;5097117;28;20449;-72
2023/01/10 07:10:43;;;;;;;94.32;87.32;;;7.30;99.90;;;;;;5097159;28;20101;-72
2023/01/10 07:13:09;;;;;;;91.07;84.43;;;7.20;99.90;;;;;;5097059;28;20087;-72
2023/01/10 07:15:35;;;;;;;91.22;84.80;;;7.10;99.90;;;;;;5097011;28;20071;-72
2023/01/10 07:18:01;;;;;;;92.57;85.43;;;7.10;99.90;;;;;;5096988;28;20044;-72
2023/01/10 07:20:27;;;;;;;89.57;82.35;;;7.00;99.90;;;;;;5096854;28;20051;-72
2023/01/10 07:22:58;;;;;;;90.68;83.20;;;7.00;99.90;;;;;;5079068;28;20478;-71
2023/01/10 07:25:25;;;;;;;93.53;85.97;;;6.90;99.90;;;;;;5095834;28;20078;-72
2023/01/10 07:27:50;;;;;;;94.35;85.43;;;7.00;99.90;;;;;;5096870;28;20046;-71
2023/01/10 07:30:16;;;;;;;91.35;84.45;;;7.00;99.90;;;;;;5095526;28;20043;-72
2023/01/10 07:32:42;;;;;;;97.43;89.22;;;7.00;99.90;;;;;;5096194;28;20040;-72
2023/01/10 07:35:08;;;;;;;97.80;89.97;;;7.10;99.90;;;;;;5095505;28;20047;-72
2023/01/10 07:37:34;;;;;;;93.38;86.70;;;7.30;99.90;;;;;;5096813;28;20032;-72
2023/01/10 07:39:59;;;;;;;95.45;87.90;;;7.30;99.90;;;;;;5096663;28;20483;-72
2023/01/10 07:42:25;;;;;;;94.22;87.05;;;7.40;99.90;;;;;;5096749;28;20040;-72
2023/01/10 07:44:50;;;;;;;95.32;85.72;;;7.40;99.90;;;;;;5096718;28;20382;-72
2023/01/10 07:47:16;;;;;;;96.70;87.85;;;7.50;99.90;;;;;;5095707;28;20036;-72
2023/01/10 07:49:42;;;;;;;99.47;89.53;;;7.50;99.90;;;;;;5096280;28;20424;-72
2023/01/10 07:52:08;;;;;;;93.47;85.22;;;7.60;99.90;;;;;;5095665;28;20119;-72
2023/01/10 07:54:34;;;;;;;93.47;84.22;;;7.50;99.90;;;;;;5096614;28;20040;-72
2023/01/10 07:57:00;;;;;;;96.63;86.93;;;7.40;99.90;;;;;;5096602;28;20040;-72
2023/01/10 07:59:26;;;;;;;96.68;88.38;;;7.30;99.90;;;;;;5096529;28;20057;-72
2023/01/10 08:01:52;;;;;;;97.10;88.22;;;7.30;99.90;;;;;;5096200;28;20496;-72
2023/01/10 08:04:19;;;;;;;94.40;87.35;;;7.40;99.90;;;;;;5096575;28;20029;-71
2023/01/10 08:06:44;;;;;;;96.50;86.53;;;7.30;99.90;;;;;;5096529;28;20046;-72
2023/01/10 08:09:10;;;;;;;96.03;87.43;;;7.40;99.90;;;;;;5100207;28;20399;-72
2023/01/10 08:11:36;;;;;;;96.03;86.43;;;7.50;99.90;;;;;;5100353;28;20465;-71
2023/01/10 08:14:02;;;;;;;92.57;83.65;;;7.60;99.90;;;;;;5100378;28;20101;-72
2023/01/10 08:16:27;;;;;;;93.18;85.57;;;7.50;99.90;;;;;;5100237;28;20420;-72
2023/01/10 08:18:53;;;;;;;98.70;89.82;;;7.50;99.90;;;;;;5100244;28;20040;-72
2023/01/10 08:21:19;;;;;;;97.38;87.70;;;7.70;99.90;;;;;;5099798;28;20040;-72
2023/01/10 08:23:45;;;;;;;96.18;87.40;;;7.60;99.90;;;;;;5099212;28;20044;-71
2023/01/10 08:26:10;;;;;;;98.70;89.10;;;7.60;99.90;;;;;;5081934;28;20040;-71
2023/01/10 08:28:36;;;;;;;94.40;84.68;;;7.60;99.90;;;;;;5100050;28;20036;-71
2023/01/10 08:31:05;;;;;;;97.13;87.00;;;7.50;99.90;;;;;;5099698;28;20333;-71
2023/01/10 08:33:30;;;;;;;97.07;88.38;;;7.50;99.90;;;;;;5099379;28;20104;-71
2023/01/10 08:35:56;;;;;;;95.95;86.63;;;7.40;99.90;;;;;;5099936;28;20409;-71
2023/01/10 08:38:22;;;;;;;94.97;87.07;;;7.50;99.90;;;;;;5099861;28;20119;-72
2023/01/10 08:40:47;;;;;;;95.50;86.55;;;7.40;99.90;;;;;;5099457;28;20044;-71
2023/01/10 08:43:14;;;;;;;97.28;88.60;;;7.50;99.90;;;;;;5099432;28;20044;-71
2023/01/10 08:45:40;;;;;;;102.15;91.53;;;7.50;99.90;;;;;;5099710;28;20036;-71
2023/01/10 08:48:08;;;;;;;95.88;88.05;;;7.60;99.90;;;;;;5099453;28;20067;-71
2023/01/10 08:50:34;;;;;;;97.88;87.80;;;7.70;99.90;;;;;;5099672;28;20047;-71
2023/01/10 08:53:00;;;;;;;90.85;83.35;;;7.70;99.90;;;;;;5099600;28;20043;-71
2023/01/10 08:55:27;;;;;;;91.60;81.97;;;7.70;99.90;;;;;;5099207;28;20039;-71
2023/01/10 08:57:52;;;;;;;102.82;92.57;;;7.70;99.90;;;;;;5099425;28;20058;-71
2023/01/10 09:00:19;;;;;;;98.40;89.03;;;7.50;99.90;;;;;;5099340;28;20375;-70
2023/01/10 09:02:44;;;;;;;98.35;87.63;;;7.40;99.90;;;;;;5099384;28;20032;-69
2023/01/10 09:05:11;;;;;;;94.43;86.45;;;7.30;99.90;;;;;;5099368;28;20036;-70
2023/01/10 09:07:36;;;;;;;91.75;84.80;;;7.20;99.90;;;;;;5098982;28;20437;-69
2023/01/10 09:10:03;;;;;;;95.93;87.30;;;7.30;99.90;;;;;;5097938;28;20080;-69
2023/01/10 09:15:13;;;;;;;96.80;87.13;;;7.60;99.90;;;;;;5099233;28;20047;-69
2023/01/10 09:17:39;;;;;;;100.05;90.28;;;7.80;99.90;;;;;;5098410;28;20044;-69
2023/01/10 09:20:08;;;;;;;100.32;90.45;;;7.90;99.90;;;;;;5098534;28;20109;-69
2023/01/10 09:22:35;;;;;;;100.25;90.47;;;7.80;99.90;;;;;;5098698;28;20090;-69
2023/01/10 09:25:01;;;;;;;102.07;92.80;;;7.80;99.90;;;;;;5098949;28;20039;-69
2023/01/10 09:27:27;;;;;;;101.90;93.28;;;8.00;99.90;;;;;;5098675;28;20372;-69
2023/01/10 09:29:52;;;;;;;98.25;90.78;;;8.10;99.90;;;;;;5098869;28;20051;-69
2023/01/10 09:32:18;;;;;;;100.32;92.18;;;8.10;99.90;;;;;;5098411;28;20040;-69
2023/01/10 09:34:44;;;;;;;97.28;89.63;;;8.00;99.90;;;;;;5098801;28;20035;-69
2023/01/10 09:37:10;;;;;;;94.40;86.30;;;8.10;99.90;;;;;;5098404;28;20130;-69
2023/01/10 09:39:35;;;;;;;96.57;89.03;;;8.00;99.90;;;;;;5098297;28;20044;-69
2023/01/10 09:42:49;;;;;;;89.05;82.35;;;8.10;99.90;;;;;;5098285;28;20040;-69
2023/01/10 09:45:46;;;;;;;98.43;89.80;;;8.20;99.90;;;;;;5094945;28;20052;-69
2023/01/10 09:48:38;;;;;;;97.90;88.97;;;8.20;99.90;;;;;;5097078;28;20052;-70
2023/01/10 09:51:12;;;;;;;98.22;88.82;;;8.30;99.90;;;;;;5097763;28;20050;-70
2023/01/10 09:53:42;;;;;;;94.65;87.47;;;8.30;99.90;;;;;;5098102;28;20093;-72
2023/01/10 09:56:08;;;;;;;99.32;92.07;;;8.30;99.90;;;;;;5098404;28;20043;-69
2023/01/10 09:58:37;;;;;;;99.88;91.22;;;8.30;99.90;;;;;;5098326;28;20028;-70
2023/01/10 10:01:09;;;;;;;99.95;92.15;;;8.30;99.90;;;;;;5097828;28;20040;-69
2023/01/10 10:04:03;;;;;;;97.30;88.93;;;8.30;99.90;;;;;;5097570;28;20524;-69
2023/01/10 10:06:29;;;;;;;100.68;92.45;;;8.40;99.90;;;;;;5097845;28;20048;-68
2023/01/10 10:08:56;;;;;;;98.22;90.32;;;8.30;99.90;;;;;;5098175;28;20097;-70
2023/01/10 10:11:24;;;;;;;101.32;92.60;;;8.20;99.90;;;;;;5098007;28;20298;-69
2023/01/10 10:14:03;;;;;;;100.43;92.05;;;8.20;99.90;;;;;;5097998;28;20127;-70
2023/01/10 10:16:34;;;;;;;99.05;90.93;;;8.30;99.90;;;;;;5097722;28;20047;-69
2023/01/10 10:19:25;;;;;;;99.00;89.90;;;8.30;99.90;;;;;;5097914;28;20052;-70
2023/01/10 10:22:06;;;;;;;94.72;87.10;;;8.30;99.90;;;;;;5097046;28;20071;-70
2023/01/10 10:24:47;;;;;;;98.15;89.63;;;8.30;99.90;;;;;;5075850;28;20040;-70
2023/01/10 10:27:20;;;;;;;99.82;92.25;;;8.40;99.90;;;;;;5077468;28;20123;-69
2023/01/10 10:30:20;;;;;;;95.32;88.95;;;8.50;99.90;;;;;;5076708;28;20123;-70
2023/01/10 10:33:21;;;;;;;98.50;91.65;;;8.50;99.90;;;;;;5075795;28;20115;-69
2023/01/10 10:36:01;;;;;;;99.40;92.45;;;8.60;99.90;;;;;;5077078;28;20036;-69
2023/01/10 10:38:37;;;;;;;100.85;93.00;;;8.60;99.90;;;;;;5084640;28;20043;-71
2023/01/10 10:41:03;;;;;;;91.80;84.68;;;8.70;99.90;;;;;;5096477;28;20056;-70
2023/01/10 10:43:32;;;;;;;94.25;87.35;;;8.70;99.90;;;;;;5096732;28;20081;-69
2023/01/10 10:46:08;;;;;;;87.43;80.82;;;8.70;99.90;;;;;;5091340;28;20035;-69
2023/01/10 10:48:45;;;;;;;88.95;81.30;;;8.70;99.90;;;;;;5091338;28;20056;-69
2023/01/10 10:51:21;;;;;;;77.32;71.60;;;8.60;99.90;;;;;;5094661;28;20124;-71
2023/01/10 10:53:47;;;;;;;84.63;77.57;;;8.60;99.90;;;;;;5076480;28;20044;-69
2023/01/10 10:56:21;;;;;;;82.60;76.55;;;8.60;99.90;;;;;;5077030;28;20044;-68
2023/01/10 10:58:54;;;;;;;80.82;74.55;;;8.70;99.90;;;;;;5076379;28;20068;-69
2023/01/10 11:01:21;;;;;;;79.85;73.43;;;8.70;99.90;;;;;;5087264;28;20048;-69
2023/01/10 11:03:57;;;;;;;76.75;70.50;;;8.50;99.90;;;;;;5096344;28;20111;-69
2023/01/10 11:06:25;;;;;;;79.93;74.03;;;8.60;99.90;;;;;;5096992;28;20036;-70
2023/01/10 11:08:55;;;;;;;79.32;72.65;;;8.50;99.90;;;;;;5096612;28;20040;-70
2023/01/10 11:11:34;;;;;;;74.25;67.50;;;8.60;99.90;;;;;;5095779;28;20127;-71
2023/01/10 11:14:05;;;;;;;77.93;71.78;;;8.50;99.90;;;;;;5095254;28;20036;-70
2023/01/10 11:16:35;;;;;;;81.03;73.20;;;8.60;99.90;;;;;;5093472;28;20048;-70
2023/01/10 11:19:23;;;;;;;80.30;73.43;;;8.60;99.90;;;;;;5092905;28;20040;-72
2023/01/10 11:21:58;;;;;;;80.00;72.78;;;8.70;99.90;;;;;;5081058;28;20040;-74
2023/01/10 11:24:33;;;;;;;79.63;72.03;;;8.70;99.90;;;;;;5079705;28;20032;-69
2023/01/10 11:27:01;;;;;;;80.82;73.60;;;8.70;99.90;;;;;;5087525;28;20043;-69
2023/01/10 11:29:38;;;;;;;81.18;73.85;;;8.80;99.90;;;;;;5081931;28;20032;-70
2023/01/10 11:32:16;;;;;;;75.72;68.65;;;8.80;99.90;;;;;;5092131;28;20939;-68
2023/01/10 11:34:52;;;;;;;74.97;68.00;;;8.70;99.90;;;;;;5094906;28;20032;-69
2023/01/10 11:37:36;;;;;;;78.10;71.57;;;8.70;99.90;;;;;;5094515;28;20124;-68
2023/01/10 11:40:19;;;;;;;73.00;66.43;;;8.80;99.90;;;;;;5096461;28;20044;-68
2023/01/10 11:42:46;;;;;;;74.05;67.53;;;8.70;99.90;;;;;;5100023;28;20036;-67
2023/01/10 11:45:22;;;;;;;72.90;66.35;;;8.60;99.90;;;;;;5100581;28;20452;-68
2023/01/10 11:47:53;;;;;;;69.78;63.00;;;8.60;99.90;;;;;;5100888;28;20032;-68
2023/01/10 11:50:29;;;;;;;64.03;57.33;;;8.60;99.90;;;;;;5100475;28;20438;-68
2023/01/10 11:52:56;;;;;;;62.50;56.72;;;8.50;99.90;;;;;;5100551;28;20555;-68
2023/01/10 11:55:30;;;;;;;66.07;59.70;;;8.50;99.90;;;;;;5100410;28;20043;-68
2023/01/10 11:57:59;;;;;;;65.10;57.80;;;8.60;99.90;;;;;;5100448;28;20055;-68
2023/01/10 12:00:41;;;;;;;64.05;57.10;;;8.50;99.90;;;;;;5099593;28;20044;-68
2023/01/10 12:03:28;;;;;;;63.70;57.40;;;8.50;99.90;;;;;;5099897;28;20332;-68
2023/01/10 12:06:07;;;;;;;64.32;57.88;;;8.50;99.90;;;;;;5100540;28;20306;-68
2023/01/10 12:08:35;;;;;;;64.82;58.42;;;8.50;99.90;;;;;;5100548;28;20108;-68
2023/01/10 12:11:18;;;;;;;59.10;53.70;;;8.50;99.90;;;;;;5100450;28;20075;-69
2023/01/10 12:13:46;;;;;;;63.60;57.25;;;8.50;99.90;;;;;;5100440;28;20051;-69
2023/01/10 12:16:29;;;;;;;61.40;55.22;;;8.60;99.90;;;;;;5100344;28;20097;-68
2023/01/10 12:19:01;;;;;;;61.75;55.72;;;8.40;99.90;;;;;;5100235;28;20049;-70
2023/01/10 12:21:32;;;;;;;60.13;53.60;;;8.40;99.90;;;;;;5099856;28;20115;-69
2023/01/10 12:24:03;;;;;;;60.85;55.08;;;8.30;99.90;;;;;;5100215;28;20047;-69
2023/01/10 12:26:31;;;;;;;60.88;54.38;;;8.40;99.90;;;;;;5100177;28;20098;-68
2023/01/10 12:29:07;;;;;;;63.90;50.65;;;8.30;99.90;;;;;;5100157;28;20067;-68
2023/01/10 12:31:34;;;;;;;54.72;49.83;;;8.20;99.90;;;;;;5100147;28;20040;-69
2023/01/10 12:34:40;;;;;;;55.03;49.22;;;8.20;99.90;;;;;;5099599;28;20048;-67
2023/01/10 12:37:21;;;;;;;58.80;53.67;;;8.20;99.90;;;;;;5093614;28;20059;-69
2023/01/10 12:40:16;;;;;;;53.33;47.92;;;8.20;99.90;;;;;;5099812;28;20040;-69
2023/01/10 12:45:51;;;;;;;57.40;51.85;;;8.20;99.90;;;;;;5098533;28;20083;-70
2023/01/10 12:48:23;;;;;;;51.25;46.40;;;8.20;99.90;;;;;;5099642;28;20040;-70
2023/01/10 12:50:58;;;;;;;50.05;45.30;;;8.10;99.90;;;;;;5099279;28;20056;-69
2023/01/10 12:53:38;;;;;;;53.75;48.55;;;8.20;99.90;;;;;;5098868;28;20074;-69
2023/01/10 12:56:08;;;;;;;52.78;47.92;;;8.10;99.90;;;;;;5098589;28;20123;-69
2023/01/10 12:58:57;;;;;;;49.78;44.65;;;7.90;99.90;;;;;;5099524;28;20040;-69
2023/01/10 13:01:33;;;;;;;53.22;47.45;;;7.90;99.90;;;;;;5099465;28;20040;-69
2023/01/10 13:04:08;;;;;;;49.53;44.90;;;8.10;99.90;;;;;;5098837;28;20169;-69